Time;durP1;ratioP1;P1;durP2;ratioP2;P2;SDS_P1;SDS_P2;PMS_P1;PMS_P2;Temp;Humidity;BMP_temperature;BMP_pressure;BME280_temperature;BME280_humidity;BME280_pressure;Samples;Min_cycle;Max_cycle;Signal;HPM_P1;HPM_P2
2023/08/07 00:02:23;;;;;;;;;1.75;1.00;;;;;18.72;63.85;101563.97;5007552;28;45405;-69
2023/08/07 00:04:48;;;;;;;;;1.00;0.75;;;;;18.70;63.64;101561.34;5010783;28;45810;-70
2023/08/07 00:07:14;;;;;;;;;1.00;1.00;;;;;18.68;63.59;101567.81;5012606;28;45440;-70
2023/08/07 00:09:39;;;;;;;;;1.00;1.00;;;;;18.60;63.68;101554.69;5012079;28;45460;-70
2023/08/07 00:12:05;;;;;;;;;1.00;1.00;;;;;18.65;63.96;101555.31;4998779;28;45897;-69
2023/08/07 00:14:30;;;;;;;;;2.00;1.00;;;;;18.69;63.37;101562.31;5001226;28;46135;-70
2023/08/07 00:16:56;;;;;;;;;0.00;0.00;;;;;18.74;63.71;101580.13;5014146;28;45564;-70
2023/08/07 00:19:21;;;;;;;;;0.00;0.00;;;;;18.56;63.55;101549.50;5011734;28;45803;-70
2023/08/07 00:21:46;;;;;;;;;1.50;1.00;;;;;18.64;63.79;101558.09;5020917;28;45487;-70
2023/08/07 00:24:12;;;;;;;;;0.75;0.75;;;;;18.84;63.97;101598.53;5009664;28;45545;-70
2023/08/07 00:26:37;;;;;;;;;1.75;1.75;;;;;18.67;63.83;101568.75;5020840;28;45389;-70
2023/08/07 00:29:03;;;;;;;;;1.00;1.00;;;;;18.66;63.67;101575.09;5010028;28;45580;-70
2023/08/07 00:31:31;;;;;;;;;0.75;0.75;;;;;18.75;63.68;101590.84;4998673;28;45411;-70
2023/08/07 00:34:00;;;;;;;;;1.00;1.00;;;;;18.80;63.83;101602.28;5020574;28;45316;-70
2023/08/07 00:36:28;;;;;;;;;0.00;0.00;;;;;18.59;63.97;101574.56;5010476;28;45603;-70
2023/08/07 00:38:53;;;;;;;;;0.75;0.00;;;;;18.57;63.78;101575.59;5000385;28;45395;-70
2023/08/07 00:41:20;;;;;;;;;0.00;0.00;;;;;18.52;63.75;101567.72;5013102;28;45522;-70
2023/08/07 00:43:45;;;;;;;;;1.75;0.25;;;;;18.47;64.35;101553.59;5010414;28;45739;-70
2023/08/07 00:46:11;;;;;;;;;0.50;0.50;;;;;18.67;63.96;101590.38;5002791;28;45351;-70
2023/08/07 00:48:36;;;;;;;;;0.75;0.75;;;;;18.54;64.46;101567.66;5010645;28;45324;-70
2023/08/07 00:51:04;;;;;;;;;2.25;2.25;;;;;18.52;64.43;101562.31;5017326;28;45486;-70
2023/08/07 00:53:30;;;;;;;;;0.75;0.75;;;;;18.42;64.45;101555.66;5020551;28;45419;-70
2023/08/07 00:55:57;;;;;;;;;3.25;0.75;;;;;18.50;64.71;101570.50;5007059;28;45500;-69
2023/08/07 00:58:23;;;;;;;;;1.00;1.00;;;;;18.52;64.20;101579.41;5020481;28;45498;-70
2023/08/07 01:00:48;;;;;;;;;1.75;0.75;;;;;18.59;64.88;101587.22;5002501;28;45471;-70
2023/08/07 01:03:14;;;;;;;;;1.50;1.00;;;;;18.51;65.00;101577.69;5020056;28;45401;-70
2023/08/07 01:05:39;;;;;;;;;3.00;2.00;;;;;18.33;64.89;101557.88;5002295;28;45372;-70
2023/08/07 01:08:05;;;;;;;;;0.75;0.75;;;;;18.28;65.00;101554.53;5008497;28;45592;-70
2023/08/07 01:10:48;;;;;;;;;1.75;0.25;;;;;18.48;65.46;101582.38;5014052;28;45393;-70
2023/08/07 01:13:27;;;;;;;;;0.00;0.00;;;;;18.45;65.21;101585.25;5006886;28;45428;-70
2023/08/07 01:15:59;;;;;;;;;1.50;1.00;;;;;18.39;65.65;101589.13;5008959;28;45519;-69
2023/08/07 01:18:26;;;;;;;;;2.75;0.50;;;;;18.07;65.89;101540.31;5004322;28;45462;-70
2023/08/07 01:20:52;;;;;;;;;1.00;1.00;;;;;18.15;65.87;101561.53;5000651;28;45467;-70
2023/08/07 01:23:17;;;;;;;;;0.75;0.50;;;;;18.08;65.96;101555.56;4999209;28;45638;-70
2023/08/07 01:25:43;;;;;;;;;1.50;0.50;;;;;17.99;65.92;101549.75;4982654;28;46624;-70
2023/08/07 01:28:28;;;;;;;;;1.50;0.75;;;;;18.02;66.19;101553.19;5001537;28;45488;-70
2023/08/07 01:30:58;;;;;;;;;2.00;2.00;;;;;18.00;66.27;101546.13;5020171;28;45447;-70
2023/08/07 01:33:32;;;;;;;;;1.50;1.50;;;;;18.21;66.67;101584.66;5002968;28;45491;-70
2023/08/07 01:36:01;;;;;;;;;0.25;0.25;;;;;17.96;66.95;101543.56;5010917;28;45581;-70
2023/08/07 01:38:28;;;;;;;;;0.50;0.00;;;;;17.97;66.54;101555.25;5007050;28;45508;-70
2023/08/07 01:40:54;;;;;;;;;0.50;0.50;;;;;17.89;66.76;101535.84;5010548;28;45387;-69
2023/08/07 01:43:20;;;;;;;;;1.50;0.50;;;;;17.92;66.79;101551.91;4999825;28;45397;-69
2023/08/07 01:45:45;;;;;;;;;0.00;0.00;;;;;18.00;67.27;101565.03;4982064;28;45512;-70
2023/08/07 01:48:11;;;;;;;;;1.50;1.50;;;;;17.81;66.95;101547.00;5000037;28;45427;-70
2023/08/07 01:50:38;;;;;;;;;1.00;1.00;;;;;18.04;66.88;101582.81;4982155;28;45612;-70
2023/08/07 01:53:04;;;;;;;;;0.50;0.50;;;;;17.89;66.97;101557.44;4999860;28;46358;-70
2023/08/07 01:55:29;;;;;;;;;1.75;1.75;;;;;18.02;67.24;101582.03;4999731;28;45620;-70
2023/08/07 01:57:54;;;;;;;;;2.00;2.00;;;;;17.87;67.20;101564.75;4999855;28;45490;-70
2023/08/07 02:00:20;;;;;;;;;1.50;1.50;;;;;17.71;67.48;101543.91;4999759;28;45477;-70
2023/08/07 02:02:46;;;;;;;;;3.00;1.00;;;;;17.81;67.67;101556.91;4999310;28;45360;-70
2023/08/07 02:05:13;;;;;;;;;1.75;0.50;;;;;17.85;67.83;101561.22;4999515;28;45512;-70
2023/08/07 02:07:38;;;;;;;;;1.50;1.25;;;;;17.81;67.99;101556.91;5004492;28;45339;-70
2023/08/07 02:10:04;;;;;;;;;0.50;0.50;;;;;17.76;68.03;101558.03;5018112;28;45326;-69
2023/08/07 02:12:32;;;;;;;;;2.00;2.00;;;;;18.00;67.76;101586.63;4999402;28;45641;-70
2023/08/07 02:14:58;;;;;;;;;0.50;0.50;;;;;17.73;68.22;101547.38;4999506;28;45383;-70
2023/08/07 02:17:24;;;;;;;;;1.75;1.75;;;;;17.72;67.94;101547.47;4999632;28;45410;-70
2023/08/07 02:19:50;;;;;;;;;1.00;1.00;;;;;17.75;68.34;101552.72;4999377;28;45527;-70
2023/08/07 02:22:15;;;;;;;;;1.00;0.00;;;;;17.75;68.09;101552.72;4999505;28;45303;-70
2023/08/07 02:24:40;;;;;;;;;4.50;1.75;;;;;17.63;68.39;101538.00;4999342;28;45405;-70
2023/08/07 02:27:06;;;;;;;;;1.25;1.25;;;;;17.70;68.59;101552.06;4999447;28;45329;-70
2023/08/07 02:29:34;;;;;;;;;4.50;2.50;;;;;17.67;68.52;101544.13;5011989;28;45584;-70
2023/08/07 02:32:00;;;;;;;;;1.00;1.00;;;;;17.69;68.75;101553.91;4997825;28;46142;-70
2023/08/07 02:34:25;;;;;;;;;2.00;2.00;;;;;17.83;69.19;101580.22;5012280;28;45547;-70
2023/08/07 02:36:51;;;;;;;;;1.00;1.00;;;;;17.69;68.60;101550.31;5017395;28;45506;-69
2023/08/07 02:39:16;;;;;;;;;4.25;2.00;;;;;17.68;69.35;101557.53;5005322;28;46838;-70
2023/08/07 02:41:41;;;;;;;;;2.50;2.00;;;;;17.61;69.00;101548.00;5002865;28;45601;-70
2023/08/07 02:44:07;;;;;;;;;1.25;1.25;;;;;17.81;69.16;101570.41;4998683;28;45389;-70
2023/08/07 02:46:34;;;;;;;;;2.50;2.00;;;;;17.63;69.18;101547.94;4999334;28;45344;-69
2023/08/07 02:48:59;;;;;;;;;1.00;1.00;;;;;17.59;69.19;101545.38;4998884;28;45559;-70
2023/08/07 02:51:25;;;;;;;;;1.00;1.00;;;;;17.81;69.63;101586.63;4999116;28;45593;-70
2023/08/07 02:53:50;;;;;;;;;2.50;1.00;;;;;17.63;69.87;101550.63;4998857;28;45479;-70
2023/08/07 02:56:15;;;;;;;;;1.00;1.00;;;;;17.74;69.64;101576.16;4999445;28;45412;-70
2023/08/07 02:58:41;;;;;;;;;1.00;1.00;;;;;17.57;69.78;101546.38;4998591;28;45330;-70
2023/08/07 03:01:07;;;;;;;;;1.00;1.00;;;;;17.52;69.68;101538.50;4999053;28;46242;-70
2023/08/07 03:03:33;;;;;;;;;2.50;2.00;;;;;17.70;70.01;101577.22;4998616;28;45362;-70
2023/08/07 03:05:58;;;;;;;;;1.00;1.00;;;;;17.69;69.95;101580.00;4981329;28;45687;-70
2023/08/07 03:08:24;;;;;;;;;3.00;2.00;;;;;17.52;69.92;101548.44;5009598;28;45453;-70
2023/08/07 03:10:53;;;;;;;;;3.00;1.75;;;;;17.51;70.19;101550.28;5010679;28;45454;-70
2023/08/07 03:13:19;;;;;;;;;2.75;1.50;;;;;17.46;70.25;101544.22;4998516;28;45318;-70
2023/08/07 03:15:45;;;;;;;;;1.00;1.00;;;;;17.46;70.34;101546.94;4999126;28;45434;-70
2023/08/07 03:18:10;;;;;;;;;4.00;2.25;;;;;17.59;70.91;101563.38;4998449;28;45405;-70
2023/08/07 03:20:38;;;;;;;;;4.25;2.00;;;;;17.71;70.61;101591.63;4998733;28;45471;-70
2023/08/07 03:23:04;;;;;;;;;3.75;2.00;;;;;17.52;70.47;101565.50;4998568;28;45539;-70
2023/08/07 03:25:29;;;;;;;;;1.75;1.75;;;;;17.56;70.60;101568.94;4998919;28;45588;-70
2023/08/07 03:27:55;;;;;;;;;2.00;2.00;;;;;17.63;70.61;101575.78;4998520;28;45359;-70
2023/08/07 03:30:20;;;;;;;;;5.00;1.50;;;;;17.46;70.81;101554.13;5017980;28;46327;-70
2023/08/07 03:32:48;;;;;;;;;3.50;2.00;;;;;17.47;70.45;101555.88;5005625;28;45349;-70
2023/08/07 03:35:13;;;;;;;;;2.00;2.00;;;;;17.46;71.16;101556.81;5011546;28;45340;-70
2023/08/07 03:37:38;;;;;;;;;2.00;2.00;;;;;17.55;70.67;101575.28;4998651;28;45377;-69
2023/08/07 03:40:04;;;;;;;;;4.25;2.00;;;;;17.64;71.08;101593.75;4998475;28;45446;-70
2023/08/07 03:42:30;;;;;;;;;3.00;2.00;;;;;17.59;71.01;101584.97;5002897;28;45347;-70
2023/08/07 03:44:55;;;;;;;;;2.50;2.50;;;;;17.64;71.27;101600.97;4998361;28;45437;-70
2023/08/07 03:47:20;;;;;;;;;2.75;1.50;;;;;17.35;71.33;101555.53;5000148;28;45298;-70
2023/08/07 03:49:46;;;;;;;;;3.00;2.00;;;;;17.41;71.62;101559.78;5001616;28;46286;-70
2023/08/07 03:52:11;;;;;;;;;2.00;2.00;;;;;17.40;71.54;101556.16;5001740;28;45334;-70
2023/08/07 03:54:37;;;;;;;;;1.25;1.25;;;;;17.61;71.67;101599.28;5001753;28;45515;-69
2023/08/07 03:57:03;;;;;;;;;4.75;2.25;;;;;17.41;71.44;101566.03;5001392;28;45342;-70
2023/08/07 03:59:28;;;;;;;;;3.00;1.75;;;;;17.39;71.48;101557.13;5001471;28;45323;-70
2023/08/07 04:01:53;;;;;;;;;3.75;2.00;;;;;17.41;70.77;101557.94;5001537;28;45444;-70
2023/08/07 04:04:19;;;;;;;;;2.00;2.00;;;;;17.45;70.95;101552.38;5001469;28;45324;-70
2023/08/07 04:06:44;;;;;;;;;2.25;2.00;;;;;17.43;71.33;101554.28;5001423;28;45451;-70
2023/08/07 04:09:10;;;;;;;;;2.00;2.00;;;;;17.61;71.56;101588.50;5018506;28;46151;-70
2023/08/07 04:11:36;;;;;;;;;3.00;2.00;;;;;17.43;71.27;101565.97;5008220;28;45463;-70
2023/08/07 04:14:01;;;;;;;;;2.00;2.00;;;;;17.41;71.88;101568.72;4983743;28;45480;-70
2023/08/07 04:16:27;;;;;;;;;2.25;1.00;;;;;17.49;71.41;101571.06;5014273;28;45443;-70
2023/08/07 04:18:52;;;;;;;;;2.25;1.25;;;;;17.39;71.58;101554.44;5007841;28;45436;-70
2023/08/07 04:21:17;;;;;;;;;2.00;2.00;;;;;17.53;71.80;101577.19;5008345;28;45580;-70
2023/08/07 04:23:43;;;;;;;;;2.00;2.00;;;;;17.66;71.58;101604.44;5001299;28;45405;-70
2023/08/07 04:26:09;;;;;;;;;2.00;1.50;;;;;17.67;71.58;101604.38;4983674;28;45268;-70
2023/08/07 04:28:34;;;;;;;;;6.00;2.50;;;;;17.50;71.84;101574.63;5005845;28;45439;-70
2023/08/07 04:31:00;;;;;;;;;4.75;2.75;;;;;17.43;71.55;101565.97;5021057;28;45481;-70
2023/08/07 04:33:25;;;;;;;;;1.75;1.50;;;;;17.51;72.17;101582.66;5004015;28;45243;-70
2023/08/07 04:35:50;;;;;;;;;2.00;2.00;;;;;17.41;71.60;101574.13;5012628;28;45515;-70
2023/08/07 04:38:17;;;;;;;;;4.00;2.00;;;;;17.47;71.54;101580.19;5014092;28;45293;-70
2023/08/07 04:40:49;;;;;;;;;5.75;3.50;;;;;17.45;72.36;101573.97;5010671;28;45605;-70
2023/08/07 04:43:21;;;;;;;;;4.25;3.00;;;;;17.34;72.01;101561.00;5001496;28;45282;-70
2023/08/07 04:45:47;;;;;;;;;2.50;2.50;;;;;17.47;71.88;101583.75;5000556;28;45377;-70
2023/08/07 04:48:14;;;;;;;;;1.00;1.00;;;;;17.35;71.71;101570.84;5000910;28;46306;-70
2023/08/07 04:50:39;;;;;;;;;3.00;3.00;;;;;17.43;71.66;101589.38;4983191;28;45523;-70
2023/08/07 04:53:05;;;;;;;;;2.00;2.00;;;;;17.57;72.17;101625.56;5001036;28;45374;-70
2023/08/07 04:55:32;;;;;;;;;5.75;2.75;;;;;17.21;71.91;101555.31;5000861;28;45304;-70
2023/08/07 04:57:57;;;;;;;;;4.75;4.00;;;;;17.52;72.03;101605.13;5000452;28;46115;-70
2023/08/07 05:00:26;;;;;;;;;2.00;2.00;;;;;17.48;72.16;101603.53;5013725;28;45351;-70
2023/08/07 05:02:52;;;;;;;;;1.75;1.50;;;;;17.49;72.06;101603.47;5008631;28;45483;-70
2023/08/07 05:05:20;;;;;;;;;2.00;2.00;;;;;17.36;72.44;101581.56;5005577;28;45360;-70
2023/08/07 05:07:49;;;;;;;;;4.00;2.75;;;;;17.35;72.32;101579.81;4988497;28;47973;-70
2023/08/07 05:10:14;;;;;;;;;3.25;2.00;;;;;17.57;72.27;101625.56;4989313;28;45389;-70
2023/08/07 05:12:40;;;;;;;;;4.00;2.25;;;;;17.31;72.42;101574.66;5011557;28;45408;-70
2023/08/07 05:15:06;;;;;;;;;2.50;2.50;;;;;17.34;72.95;101582.56;5000490;28;45469;-70
2023/08/07 05:17:32;;;;;;;;;6.50;4.25;;;;;17.41;73.13;101601.13;5000248;28;45393;-70
2023/08/07 05:19:57;;;;;;;;;4.00;3.00;;;;;17.50;72.99;101615.13;5000281;28;45494;-70
2023/08/07 05:22:22;;;;;;;;;3.00;3.00;;;;;17.43;72.54;101595.66;5000538;28;45494;-70
2023/08/07 05:24:48;;;;;;;;;5.75;4.75;;;;;17.31;72.45;101583.63;5000269;28;45354;-70
2023/08/07 05:27:14;;;;;;;;;4.00;2.75;;;;;17.40;73.03;101598.50;5000203;28;45469;-70
2023/08/07 05:29:48;;;;;;;;;3.75;3.75;;;;;17.43;73.15;101606.44;5013947;28;45309;-70
2023/08/07 05:32:14;;;;;;;;;5.50;4.00;;;;;17.36;73.24;101599.59;5011809;28;45435;-70
2023/08/07 05:34:40;;;;;;;;;5.00;5.00;;;;;17.55;73.00;101635.53;5011789;28;45393;-70
2023/08/07 05:37:07;;;;;;;;;7.75;6.75;;;;;17.57;73.42;101633.66;5001154;28;45475;-70
2023/08/07 05:39:32;;;;;;;;;6.75;6.75;;;;;17.43;73.56;101605.56;5013331;28;45345;-69
2023/08/07 05:41:58;;;;;;;;;7.25;6.00;;;;;17.41;73.94;101609.22;5003528;28;45223;-69
2023/08/07 05:44:24;;;;;;;;;11.25;8.00;;;;;17.32;74.08;101595.28;4999796;28;45285;-70
2023/08/07 05:46:49;;;;;;;;;8.50;7.00;;;;;17.30;74.17;101602.56;4999920;28;45587;-70
2023/08/07 05:49:15;;;;;;;;;8.25;7.75;;;;;17.40;74.48;101617.38;4999819;28;45399;-70
2023/08/07 05:51:41;;;;;;;;;9.75;9.75;;;;;17.29;74.33;101601.72;5000107;28;45401;-70
2023/08/07 05:54:06;;;;;;;;;10.75;9.00;;;;;17.30;74.80;101607.97;4999735;28;45581;-70
2023/08/07 05:56:32;;;;;;;;;14.00;12.00;;;;;17.36;74.72;101622.03;4999835;28;45455;-69
2023/08/07 05:58:57;;;;;;;;;11.50;9.00;;;;;17.18;74.86;101587.84;4999435;28;45377;-70
2023/08/07 06:01:23;;;;;;;;;10.50;9.75;;;;;17.27;74.83;101600.00;4999923;28;45456;-70
2023/08/07 06:03:48;;;;;;;;;10.00;9.00;;;;;17.37;75.50;101617.50;4981471;28;45529;-70
2023/08/07 06:06:14;;;;;;;;;13.50;9.50;;;;;17.31;75.41;101609.72;4999779;28;45403;-70
2023/08/07 06:08:39;;;;;;;;;11.25;10.25;;;;;17.49;75.47;101635.84;5012555;28;45650;-70
2023/08/07 06:11:08;;;;;;;;;13.75;10.75;;;;;17.52;75.90;101641.06;4992315;28;45406;-70
2023/08/07 06:13:33;;;;;;;;;12.50;9.50;;;;;17.34;75.39;101612.25;4999409;28;45391;-70
2023/08/07 06:15:59;;;;;;;;;10.50;7.00;;;;;17.31;75.65;101604.34;4999412;28;45422;-70
2023/08/07 06:18:24;;;;;;;;;8.75;8.25;;;;;17.41;75.88;101625.41;4999144;28;45575;-70
2023/08/07 06:20:49;;;;;;;;;11.25;11.00;;;;;17.57;76.34;101655.25;4999804;28;45429;-70
2023/08/07 06:23:15;;;;;;;;;13.25;11.00;;;;;17.38;75.75;101612.06;4981650;28;45401;-69
2023/08/07 06:25:40;;;;;;;;;10.00;10.00;;;;;17.43;76.02;101622.63;4981642;28;46796;-70
2023/08/07 06:28:05;;;;;;;;;7.25;7.25;;;;;17.44;76.08;101628.91;4983681;28;45729;-70
2023/08/07 06:30:31;;;;;;;;;13.50;9.25;;;;;17.34;76.23;101621.25;5019374;28;45539;-70
2023/08/07 06:32:56;;;;;;;;;9.00;7.75;;;;;17.56;76.13;101658.91;4986660;28;45436;-70
2023/08/07 06:35:22;;;;;;;;;9.75;9.25;;;;;17.18;76.43;101594.09;5012092;28;46207;-70
2023/08/07 06:37:48;;;;;;;;;11.50;11.25;;;;;17.34;76.55;101617.66;4999171;28;45454;-70
2023/08/07 06:40:13;;;;;;;;;8.50;7.50;;;;;17.50;76.58;101652.91;4999430;28;45513;-70
2023/08/07 06:42:39;;;;;;;;;9.50;8.00;;;;;17.38;76.33;101632.78;5016613;28;45358;-70
2023/08/07 06:45:06;;;;;;;;;8.50;7.25;;;;;17.33;76.93;101624.03;5006866;28;45642;-70
2023/08/07 06:47:31;;;;;;;;;7.50;7.50;;;;;17.40;76.49;101644.38;5005534;28;45695;-68
2023/08/07 06:50:00;;;;;;;;;10.25;10.00;;;;;17.40;76.62;101641.66;5010962;28;45318;-72
2023/08/07 06:52:30;;;;;;;;;8.00;8.00;;;;;17.59;76.91;101665.97;5012127;28;45539;-71
2023/08/07 06:54:56;;;;;;;;;8.75;8.75;;;;;17.38;76.65;101651.66;4999077;28;46313;-71
2023/08/07 06:57:21;;;;;;;;;10.00;9.00;;;;;17.60;76.30;101676.69;4980848;28;45332;-72
2023/08/07 06:59:46;;;;;;;;;11.00;9.75;;;;;17.40;76.75;101644.38;4999206;28;45258;-71
2023/08/07 07:02:13;;;;;;;;;10.00;10.00;;;;;17.46;76.27;101651.28;4998685;28;45358;-71
2023/08/07 07:04:38;;;;;;;;;8.25;8.25;;;;;17.50;76.32;101661.00;4980895;28;46128;-71
2023/08/07 07:07:03;;;;;;;;;7.25;7.25;;;;;17.77;76.60;101697.53;4998723;28;45430;-71
2023/08/07 07:09:29;;;;;;;;;2.00;2.00;;;;;17.40;76.13;101638.97;5000865;28;45642;-71
2023/08/07 07:11:55;;;;;;;;;8.50;7.50;;;;;17.42;76.01;101637.06;5002096;28;45624;-71
2023/08/07 07:14:21;;;;;;;;;7.00;6.25;;;;;17.80;76.19;101691.06;4980974;28;48405;-71
2023/08/07 07:16:47;;;;;;;;;8.75;7.75;;;;;17.64;76.48;101672.03;4998344;28;45766;-71
2023/08/07 07:19:12;;;;;;;;;7.50;7.50;;;;;17.62;76.22;101663.13;4998888;28;45433;-71
2023/08/07 07:21:37;;;;;;;;;10.25;7.00;;;;;17.85;76.13;101699.84;4999225;28;45504;-71
2023/08/07 07:24:03;;;;;;;;;7.00;4.25;;;;;17.65;76.18;101665.69;5002185;28;45504;-71
2023/08/07 07:26:28;;;;;;;;;11.00;7.25;;;;;17.74;76.52;101681.47;4997460;28;45440;-72
2023/08/07 07:28:56;;;;;;;;;6.00;6.00;;;;;17.94;76.15;101723.75;5009721;28;45547;-71
2023/08/07 07:31:22;;;;;;;;;10.00;9.00;;;;;17.73;76.29;101674.28;5003829;28;45544;-71
2023/08/07 07:33:48;;;;;;;;;7.50;6.75;;;;;17.89;76.09;101700.59;5000184;28;45715;-70
2023/08/07 07:36:15;;;;;;;;;6.75;6.75;;;;;17.69;76.00;101658.31;5003834;28;45282;-71
2023/08/07 07:38:41;;;;;;;;;10.50;7.75;;;;;17.80;76.31;101682.13;5013170;28;45413;-71
2023/08/07 07:41:10;;;;;;;;;9.25;8.25;;;;;17.82;76.87;101685.59;5005617;28;45508;-70
2023/08/07 07:43:35;;;;;;;;;8.50;5.75;;;;;17.94;76.20;101701.25;5001590;28;46446;-71
2023/08/07 07:46:01;;;;;;;;;12.00;8.00;;;;;17.88;76.72;101688.06;4983800;28;45255;-70
2023/08/07 07:48:26;;;;;;;;;11.50;10.00;;;;;17.87;76.03;101679.06;5001883;28;45306;-70
2023/08/07 07:50:53;;;;;;;;;8.75;7.25;;;;;17.93;76.37;101689.56;5001645;28;45429;-71
2023/08/07 07:53:18;;;;;;;;;7.50;6.50;;;;;17.94;75.84;101688.63;5001660;28;45524;-70
2023/08/07 07:55:47;;;;;;;;;5.50;4.25;;;;;17.93;75.73;101677.91;5001596;28;45295;-70
2023/08/07 07:58:13;;;;;;;;;9.75;8.75;;;;;18.15;76.41;101711.00;4990579;28;45433;-70
2023/08/07 08:00:38;;;;;;;;;8.00;7.00;;;;;17.91;75.37;101658.22;5014750;28;45643;-71
2023/08/07 08:03:04;;;;;;;;;6.50;6.50;;;;;18.17;75.85;101701.97;5001313;28;45433;-71
2023/08/07 08:05:29;;;;;;;;;6.50;5.50;;;;;18.23;75.71;101718.75;4983459;28;45461;-71
2023/08/07 08:07:54;;;;;;;;;8.00;6.25;;;;;18.00;75.46;101684.75;5008702;28;45464;-71
2023/08/07 08:10:20;;;;;;;;;6.50;6.50;;;;;18.21;75.46;101706.25;5017724;28;45349;-72
2023/08/07 08:12:45;;;;;;;;;9.75;8.00;;;;;18.12;75.32;101703.06;5011435;28;46122;-71
2023/08/07 08:15:11;;;;;;;;;6.50;5.50;;;;;18.38;74.97;101737.88;5008029;28;45271;-71
2023/08/07 08:17:36;;;;;;;;;6.25;6.00;;;;;18.21;75.25;101704.47;4993082;28;45469;-71
2023/08/07 08:20:02;;;;;;;;;5.00;5.00;;;;;18.15;75.23;101694.81;5001292;28;45488;-71
2023/08/07 08:22:27;;;;;;;;;6.00;5.75;;;;;18.23;75.32;101712.50;5001244;28;46249;-71
2023/08/07 08:24:52;;;;;;;;;6.00;6.00;;;;;18.19;75.04;101711.75;5001309;28;45258;-71
2023/08/07 08:27:18;;;;;;;;;7.00;7.00;;;;;18.22;75.43;101719.69;5001259;28;45337;-71
2023/08/07 08:29:44;;;;;;;;;4.00;4.00;;;;;18.18;75.65;101704.59;5015522;28;45413;-72
2023/08/07 08:32:10;;;;;;;;;6.75;6.00;;;;;18.40;75.67;101734.13;5012484;28;46003;-72
2023/08/07 08:34:35;;;;;;;;;6.25;4.75;;;;;18.45;75.35;101734.78;5012082;28;45407;-72
2023/08/07 08:37:01;;;;;;;;;7.00;5.25;;;;;18.54;75.17;101737.97;5002925;28;45344;-71
2023/08/07 08:39:26;;;;;;;;;5.25;4.75;;;;;18.34;74.96;101704.69;5000952;28;45654;-71
2023/08/07 08:41:52;;;;;;;;;5.00;5.00;;;;;18.39;74.47;101699.94;5004787;28;46375;-71
2023/08/07 08:44:20;;;;;;;;;3.00;3.00;;;;;18.45;74.42;101704.19;5000707;28;45477;-71
2023/08/07 08:46:49;;;;;;;;;6.00;5.25;;;;;18.48;74.36;101715.72;5001113;28;45397;-71
2023/08/07 08:49:20;;;;;;;;;3.75;3.75;;;;;18.50;73.93;101715.63;4983135;28;45684;-71
2023/08/07 08:51:46;;;;;;;;;5.25;4.25;;;;;18.54;72.97;101711.81;5000816;28;46298;-71
2023/08/07 08:54:13;;;;;;;;;4.50;4.50;;;;;18.58;72.74;101710.72;5000661;28;45294;-71
2023/08/07 08:56:39;;;;;;;;;6.50;6.00;;;;;18.79;73.41;101735.78;5000792;28;45553;-71
2023/08/07 08:59:05;;;;;;;;;3.00;3.00;;;;;18.58;72.74;101693.63;5013599;28;45472;-72
2023/08/07 09:01:31;;;;;;;;;4.00;4.00;;;;;18.87;72.93;101739.00;5000706;28;46345;-71
2023/08/07 09:03:57;;;;;;;;;2.25;2.00;;;;;18.71;72.40;101702.88;4982516;28;45497;-71
2023/08/07 09:06:23;;;;;;;;;4.25;4.25;;;;;18.70;72.64;101696.56;5000904;28;45589;-71
2023/08/07 09:08:50;;;;;;;;;3.00;3.00;;;;;18.95;72.22;101729.63;5014711;28;45406;-72
2023/08/07 09:11:16;;;;;;;;;4.00;3.00;;;;;18.91;72.46;101722.63;5008936;28;45418;-71
2023/08/07 09:13:44;;;;;;;;;3.00;3.00;;;;;18.82;71.77;101696.88;5000121;28;45450;-71
2023/08/07 09:16:11;;;;;;;;;4.00;4.00;;;;;18.87;72.07;101709.25;5000638;28;45419;-69
2023/08/07 09:18:37;;;;;;;;;4.00;4.00;;;;;18.89;71.87;101695.63;5000195;28;45520;-69
2023/08/07 09:21:02;;;;;;;;;4.00;4.00;;;;;18.92;71.76;101711.72;5000382;28;46227;-69
2023/08/07 09:23:28;;;;;;;;;3.25;3.25;;;;;19.12;71.13;101743.13;5000303;28;45478;-69
2023/08/07 09:26:04;;;;;;;;;3.50;3.25;;;;;18.97;71.05;101714.19;5000515;28;45600;-69
2023/08/07 09:28:31;;;;;;;;;3.25;3.00;;;;;19.20;71.39;101749.03;5007474;28;45337;-69
2023/08/07 09:30:58;;;;;;;;;3.25;2.00;;;;;19.03;71.34;101709.34;5020130;28;45487;-68
2023/08/07 09:33:27;;;;;;;;;5.00;5.00;;;;;19.04;70.75;101711.09;4985439;28;45913;-70
2023/08/07 09:35:56;;;;;;;;;6.75;5.00;;;;;19.11;70.51;101706.22;5011477;28;45521;-69
2023/08/07 09:38:23;;;;;;;;;2.50;2.00;;;;;19.35;70.59;101739.22;5000064;28;45359;-73
2023/08/07 09:40:49;;;;;;;;;4.00;4.00;;;;;19.06;70.99;101686.63;5003758;28;45514;-75
2023/08/07 09:43:21;;;;;;;;;3.25;3.25;;;;;19.24;69.82;101706.44;4999271;28;45908;-72
2023/08/07 09:45:47;;;;;;;;;3.25;3.25;;;;;19.40;69.99;101731.72;5012381;28;45590;-72
2023/08/07 09:48:13;;;;;;;;;4.25;3.00;;;;;19.50;70.17;101742.06;5006975;28;45242;-72
2023/08/07 09:50:38;;;;;;;;;4.75;4.00;;;;;19.34;70.09;101712.22;5005959;28;45585;-72
2023/08/07 09:53:04;;;;;;;;;2.00;2.00;;;;;19.43;69.56;101725.28;4982241;28;45632;-73
2023/08/07 09:55:31;;;;;;;;;4.00;4.00;;;;;19.30;68.77;101699.84;4999916;28;45591;-72
2023/08/07 09:57:56;;;;;;;;;4.00;2.00;;;;;19.44;69.31;101710.78;4999785;28;45387;-73
2023/08/07 10:00:21;;;;;;;;;3.25;3.25;;;;;19.65;68.79;101734.94;5012723;28;45596;-73
2023/08/07 10:02:49;;;;;;;;;3.00;3.00;;;;;19.74;68.80;101729.00;5006993;28;45417;-73
2023/08/07 10:05:15;;;;;;;;;3.00;3.00;;;;;19.62;68.37;101717.03;5005306;28;45386;-73
2023/08/07 10:07:41;;;;;;;;;2.00;2.00;;;;;19.65;68.01;101706.03;5004773;28;45329;-73
2023/08/07 10:10:08;;;;;;;;;3.50;3.50;;;;;19.66;68.21;101706.88;5018348;28;45916;-73
2023/08/07 10:12:33;;;;;;;;;3.00;3.00;;;;;19.87;67.91;101740.94;4999622;28;45343;-73
2023/08/07 10:15:00;;;;;;;;;0.75;0.75;;;;;19.76;68.06;101719.88;4999736;28;45345;-73
2023/08/07 10:17:29;;;;;;;;;2.00;2.00;;;;;19.76;67.07;101709.06;4999650;28;45405;-72
2023/08/07 10:19:54;;;;;;;;;3.00;3.00;;;;;19.95;66.98;101725.13;4981671;28;46431;-70
2023/08/07 10:22:22;;;;;;;;;2.75;2.75;;;;;19.93;67.41;101705.38;4999664;28;45314;-67
2023/08/07 10:24:50;;;;;;;;;4.00;2.75;;;;;19.99;66.58;101709.56;4999526;28;45663;-71
2023/08/07 10:27:18;;;;;;;;;0.00;0.00;;;;;19.92;66.23;101691.94;4999483;28;45367;-72
2023/08/07 10:29:47;;;;;;;;;0.25;0.25;;;;;19.98;65.43;101703.28;5013636;28;45495;-72
2023/08/07 10:32:15;;;;;;;;;2.00;2.00;;;;;19.95;65.44;101699.88;5010730;28;45373;-72
2023/08/07 10:34:46;;;;;;;;;2.00;2.00;;;;;20.07;65.44;101691.03;4993543;28;45444;-72
2023/08/07 10:37:37;;;;;;;;;1.50;1.50;;;;;20.19;64.82;101713.84;4999650;28;45331;-72
2023/08/07 10:40:04;;;;;;;;;2.25;2.25;;;;;20.10;65.23;101700.84;4999178;28;45421;-72
2023/08/07 10:43:11;;;;;;;;;1.75;1.75;;;;;19.98;64.00;101673.47;5003112;28;45552;-72
2023/08/07 10:45:38;;;;;;;;;1.75;1.75;;;;;19.91;63.51;101660.34;4998464;28;45416;-72
2023/08/07 10:48:09;;;;;;;;;2.75;2.75;;;;;20.06;62.93;101685.72;4981300;28;45612;-72
2023/08/07 10:50:48;;;;;;;;;3.00;1.25;;;;;20.23;63.66;101711.84;4999175;28;46476;-72
2023/08/07 10:53:28;;;;;;;;;2.00;2.00;;;;;20.15;62.79;101685.19;5018807;28;45508;-72
2023/08/07 10:55:57;;;;;;;;;1.75;1.75;;;;;20.18;61.96;101687.72;5001973;28;45419;-72
2023/08/07 10:58:29;;;;;;;;;4.25;1.75;;;;;20.30;61.53;101703.28;4980964;28;45556;-72
2023/08/07 11:01:20;;;;;;;;;1.00;1.00;;;;;20.38;61.34;101700.13;4998813;28;46557;-72
2023/08/07 11:03:53;;;;;;;;;4.00;2.00;;;;;20.26;61.36;101680.00;4998465;28;45494;-72
2023/08/07 11:06:41;;;;;;;;;2.00;2.00;;;;;20.26;61.14;101674.56;4999186;28;45556;-72
2023/08/07 11:09:09;;;;;;;;;4.50;3.00;;;;;20.24;61.54;101668.38;5015471;28;45518;-72
2023/08/07 11:11:42;;;;;;;;;2.00;2.00;;;;;20.48;60.98;101701.31;5005332;28;45425;-72
2023/08/07 11:14:13;;;;;;;;;4.00;2.75;;;;;20.36;61.90;101680.34;5006425;28;45495;-72
2023/08/07 11:16:38;;;;;;;;;3.00;1.50;;;;;20.42;61.46;101679.97;5005449;28;45327;-72
2023/08/07 11:19:05;;;;;;;;;2.50;1.75;;;;;20.49;60.44;101677.78;5010344;28;46540;-72
2023/08/07 11:21:31;;;;;;;;;1.00;1.00;;;;;20.61;60.59;101695.16;4993841;28;47690;-72
2023/08/07 11:23:56;;;;;;;;;1.75;1.75;;;;;20.52;59.91;101666.75;4998829;28;45531;-72